createdAt,value
2023-05-22T00:00:44.606Z,7.95
2023-05-22T00:03:51.361Z,8.68
2023-05-22T00:06:59.399Z,7.88
2023-05-22T00:10:04.802Z,8.30
2023-05-22T00:13:10.372Z,8.48
2023-05-22T00:16:15.589Z,8.63
2023-05-22T00:19:23.461Z,8.15
2023-05-22T00:22:35.934Z,7.68
2023-05-22T00:25:41.776Z,8.18
2023-05-22T00:28:47.147Z,8.60
2023-05-22T00:31:53.423Z,8.07
2023-05-22T00:34:58.741Z,8.40
2023-05-22T00:38:07.833Z,8.10
2023-05-22T00:41:13.392Z,8.05
2023-05-22T00:44:18.874Z,8.10
2023-05-22T00:47:24.983Z,9.10
2023-05-22T00:50:31.559Z,8.48
2023-05-22T00:53:39.667Z,9.02
2023-05-22T00:56:45.432Z,10.40
2023-05-22T00:59:52.142Z,9.20
2023-05-22T01:02:58.367Z,8.60
2023-05-22T01:06:04.100Z,8.20
2023-05-22T01:09:12.422Z,9.15
2023-05-22T01:15:27.772Z,9.10
2023-05-22T01:18:35.574Z,9.80
2023-05-22T01:21:46.497Z,10.10
2023-05-22T01:25:02.079Z,9.07
2023-05-22T01:28:28.098Z,9.43
2023-05-22T01:31:37.301Z,9.63
2023-05-22T01:34:43.693Z,9.43
2023-05-22T01:37:49.266Z,10.73
2023-05-22T01:40:54.713Z,9.88
2023-05-22T01:44:00.060Z,9.88
2023-05-22T01:47:10.921Z,10.15
2023-05-22T01:50:16.611Z,10.00
2023-05-22T01:53:25.586Z,9.73
2023-05-22T01:56:35.131Z,10.10
2023-05-22T01:59:43.896Z,10.18
2023-05-22T02:02:54.869Z,9.20
2023-05-22T02:06:02.887Z,9.48
2023-05-22T02:09:10.409Z,12.05
2023-05-22T02:12:17.348Z,11.03
2023-05-22T02:15:23.436Z,10.23
2023-05-22T02:18:33.090Z,10.57
2023-05-22T02:21:39.032Z,10.15
2023-05-22T02:24:45.105Z,13.60
2023-05-22T02:27:51.282Z,10.40
2023-05-22T02:30:56.907Z,11.68
2023-05-22T02:34:05.701Z,10.90
2023-05-22T02:37:11.774Z,11.20
2023-05-22T02:40:17.133Z,10.93
2023-05-22T02:43:23.110Z,11.60
2023-05-22T02:46:28.664Z,11.43
2023-05-22T02:49:36.983Z,11.68
2023-05-22T02:52:42.173Z,12.70
2023-05-22T02:55:48.759Z,12.82
2023-05-22T02:58:54.311Z,12.45
2023-05-22T03:02:00.047Z,12.85
2023-05-22T03:05:08.451Z,13.73
2023-05-22T03:08:16.088Z,14.48
2023-05-22T03:11:21.774Z,14.43
2023-05-22T03:14:27.414Z,15.00
2023-05-22T03:17:32.810Z,16.25
2023-05-22T03:20:41.003Z,15.23
2023-05-22T03:26:51.793Z,16.00
2023-05-22T03:30:05.118Z,15.40
2023-05-22T03:33:12.836Z,15.35
2023-05-22T03:36:21.721Z,15.57
2023-05-22T03:39:27.637Z,14.68
2023-05-22T03:42:37.897Z,14.40
2023-05-22T03:45:44.299Z,14.40
2023-05-22T03:48:50.046Z,14.50
2023-05-22T03:51:58.293Z,14.75
2023-05-22T03:55:03.770Z,14.25
2023-05-22T03:58:09.486Z,14.05
2023-05-22T04:01:14.699Z,15.02
2023-05-22T04:04:20.306Z,14.70
2023-05-22T04:07:28.268Z,14.68
2023-05-22T04:10:33.771Z,15.45
2023-05-22T04:13:39.336Z,14.98
2023-05-22T04:16:45.382Z,14.95
2023-05-22T04:19:50.567Z,14.98
2023-05-22T04:22:58.616Z,15.35
2023-05-22T04:26:03.949Z,14.90
2023-05-22T04:29:10.908Z,15.18
2023-05-22T04:32:18.771Z,15.10
2023-05-22T04:35:24.787Z,16.98
2023-05-22T04:38:37.073Z,15.95
2023-05-22T04:41:42.446Z,17.52
2023-05-22T04:44:48.878Z,16.05
2023-05-22T04:47:54.250Z,15.52
2023-05-22T04:51:03.067Z,15.90
2023-05-22T04:54:11.285Z,17.77
2023-05-22T04:57:18.658Z,17.38
2023-05-22T05:00:26.834Z,15.85
2023-05-22T05:03:32.443Z,16.90
2023-05-22T05:06:38.096Z,15.60
2023-05-22T05:09:46.932Z,17.15
2023-05-22T05:12:52.125Z,18.05
2023-05-22T05:15:58.129Z,17.30
2023-05-22T05:19:04.320Z,17.70
2023-05-22T05:22:10.259Z,17.23
2023-05-22T05:25:18.718Z,19.33
2023-05-22T05:28:24.443Z,18.73
2023-05-22T05:31:33.277Z,18.30
2023-05-22T05:34:59.827Z,18.95
2023-05-22T05:38:26.848Z,19.02
2023-05-22T05:41:35.924Z,18.90
2023-05-22T05:44:45.886Z,19.90
2023-05-22T05:47:51.816Z,21.65
2023-05-22T05:50:57.132Z,19.90
2023-05-22T05:54:03.476Z,20.83
2023-05-22T05:57:11.780Z,22.13
2023-05-22T06:00:17.674Z,21.30
2023-05-22T06:06:46.324Z,20.52
2023-05-22T06:10:05.476Z,21.92
2023-05-22T06:13:36.279Z,23.33
2023-05-22T06:16:41.866Z,23.13
2023-05-22T06:19:47.312Z,23.02
2023-05-22T06:22:53.961Z,23.10
2023-05-22T06:25:59.223Z,23.42
2023-05-22T06:29:08.563Z,22.73
2023-05-22T06:32:16.405Z,24.10
2023-05-22T06:35:23.487Z,22.23
2023-05-22T06:38:29.653Z,23.55
2023-05-22T06:41:36.084Z,23.20
2023-05-22T06:44:44.714Z,22.02
2023-05-22T06:47:50.586Z,21.52
2023-05-22T06:50:56.460Z,20.98
2023-05-22T06:54:04.859Z,18.75
2023-05-22T06:57:10.401Z,18.25
2023-05-22T07:00:21.675Z,17.02
2023-05-22T07:03:42.952Z,19.20
2023-05-22T07:07:23.930Z,17.98
2023-05-22T07:10:29.285Z,17.80
2023-05-22T07:13:36.881Z,18.63
2023-05-22T07:16:45.060Z,17.27
2023-05-22T07:19:52.871Z,16.33
2023-05-22T07:22:59.631Z,15.68
2023-05-22T07:26:05.517Z,14.20
2023-05-22T07:29:15.970Z,15.05
2023-05-22T07:32:27.461Z,13.75
2023-05-22T07:35:35.585Z,14.15
2023-05-22T07:38:41.679Z,13.73
2023-05-22T07:41:52.480Z,13.90
2023-05-22T07:45:00.619Z,14.13
2023-05-22T07:48:13.577Z,13.73
2023-05-22T07:51:19.226Z,13.60
2023-05-22T07:54:28.012Z,13.88
2023-05-22T07:57:36.616Z,12.73
2023-05-22T08:00:50.347Z,12.93
2023-05-22T08:03:58.364Z,13.90
2023-05-22T08:07:04.000Z,13.75
2023-05-22T08:10:11.088Z,12.02
2023-05-22T08:13:17.204Z,12.48
2023-05-22T08:16:22.508Z,12.63
2023-05-22T08:19:30.827Z,12.30
2023-05-22T08:25:41.692Z,12.85
2023-05-22T08:28:47.109Z,12.88
2023-05-22T08:31:52.678Z,12.68
2023-05-22T08:35:01.005Z,13.27
2023-05-22T08:38:10.472Z,12.45
2023-05-22T08:41:19.438Z,13.02
2023-05-22T08:44:25.472Z,15.85
2023-05-22T08:47:31.152Z,12.73
2023-05-22T08:50:42.801Z,12.88
2023-05-22T08:53:49.420Z,12.82
2023-05-22T08:56:57.532Z,12.95
2023-05-22T09:00:04.141Z,13.07
2023-05-22T09:03:15.733Z,14.18
2023-05-22T09:06:23.882Z,13.65
2023-05-22T09:09:29.171Z,12.93
2023-05-22T09:12:35.362Z,13.43
2023-05-22T09:15:41.553Z,13.52
2023-05-22T09:18:47.076Z,13.43
2023-05-22T09:21:55.888Z,14.30
2023-05-22T09:25:01.340Z,13.43
2023-05-22T09:28:09.416Z,13.23
2023-05-22T09:31:14.910Z,13.77
2023-05-22T09:34:20.598Z,12.27
2023-05-22T09:37:31.703Z,12.23
2023-05-22T09:40:38.356Z,12.07
2023-05-22T09:43:52.727Z,11.10
2023-05-22T09:46:58.209Z,8.73
2023-05-22T09:50:05.075Z,10.30
2023-05-22T09:53:13.899Z,8.18
2023-05-22T09:56:30.837Z,6.28
2023-05-22T09:59:41.889Z,7.95
2023-05-22T10:02:48.954Z,7.05
2023-05-22T10:05:55.553Z,7.80
2023-05-22T10:09:05.938Z,8.70
2023-05-22T10:12:16.568Z,9.68
2023-05-22T10:15:22.315Z,8.77
2023-05-22T10:18:27.984Z,9.20
2023-05-22T10:21:33.508Z,8.85
2023-05-22T10:24:42.201Z,9.38
2023-05-22T10:27:48.062Z,9.70
2023-05-22T10:30:56.281Z,9.10
2023-05-22T10:34:32.015Z,9.02
2023-05-22T10:37:45.186Z,10.32
2023-05-22T10:40:54.068Z,10.38
2023-05-22T10:43:59.685Z,9.75
2023-05-22T10:47:10.651Z,9.68
2023-05-22T10:50:16.421Z,9.93
2023-05-22T10:53:23.423Z,9.10
2023-05-22T10:56:35.993Z,9.97
2023-05-22T10:59:41.816Z,9.60
2023-05-22T11:02:47.871Z,8.15
2023-05-22T11:05:58.504Z,7.20
2023-05-22T11:09:19.438Z,6.78
2023-05-22T11:12:31.598Z,6.22
2023-05-22T11:15:47.128Z,6.68
2023-05-22T11:18:52.417Z,6.65
2023-05-22T11:22:03.519Z,6.55
2023-05-22T11:25:11.385Z,6.30
2023-05-22T11:31:27.470Z,6.80
2023-05-22T11:34:32.802Z,6.65
2023-05-22T11:37:41.635Z,6.13
2023-05-22T11:40:47.104Z,5.97
2023-05-22T11:43:52.847Z,6.72
2023-05-22T11:47:01.053Z,6.43
2023-05-22T11:50:07.337Z,6.13
2023-05-22T11:53:12.935Z,6.80
2023-05-22T11:56:18.501Z,6.63
2023-05-22T11:59:25.008Z,6.57
2023-05-22T12:02:33.483Z,6.65
2023-05-22T12:05:39.392Z,7.03
2023-05-22T12:08:45.949Z,6.30
2023-05-22T12:11:51.515Z,7.40
2023-05-22T12:14:57.137Z,6.97
2023-05-22T12:18:05.459Z,6.85
2023-05-22T12:21:11.121Z,6.63
2023-05-22T12:24:16.667Z,7.88
2023-05-22T12:27:22.395Z,7.80
2023-05-22T12:30:27.794Z,6.95
2023-05-22T12:33:35.747Z,7.22
2023-05-22T12:36:41.913Z,7.68
2023-05-22T12:39:56.514Z,7.05
2023-05-22T12:43:01.934Z,6.75
2023-05-22T12:46:07.500Z,10.32
2023-05-22T12:49:15.505Z,8.02
2023-05-22T12:52:20.774Z,6.75
2023-05-22T12:55:26.449Z,7.95
2023-05-22T12:58:32.044Z,7.25
2023-05-22T13:01:37.524Z,7.57
2023-05-22T13:04:45.880Z,7.93
2023-05-22T13:07:51.348Z,7.20
2023-05-22T13:10:57.314Z,7.70
2023-05-22T13:14:02.752Z,8.30
2023-05-22T13:17:08.736Z,9.30
2023-05-22T13:20:16.860Z,7.78
2023-05-22T13:23:22.221Z,7.80
2023-05-22T13:26:27.649Z,8.18
2023-05-22T13:29:33.082Z,7.57
2023-05-22T13:32:38.783Z,7.70
2023-05-22T13:35:46.938Z,8.07
2023-05-22T13:38:52.131Z,8.32
2023-05-22T13:41:58.140Z,7.70
2023-05-22T13:45:03.418Z,8.18
2023-05-22T13:51:18.426Z,7.85
2023-05-22T13:54:24.077Z,6.80
2023-05-22T13:57:29.626Z,7.72
2023-05-22T14:00:35.548Z,7.93
2023-05-22T14:03:41.384Z,7.40
2023-05-22T14:06:49.797Z,7.53
2023-05-22T14:09:55.417Z,8.55
2023-05-22T14:13:00.891Z,7.72
2023-05-22T14:16:06.284Z,8.02
2023-05-22T14:19:11.700Z,8.57
2023-05-22T14:22:20.018Z,8.30
2023-05-22T14:25:25.430Z,7.82
2023-05-22T14:28:32.161Z,8.18
2023-05-22T14:31:48.421Z,8.77
2023-05-22T14:34:56.759Z,8.13
2023-05-22T14:38:04.914Z,8.65
2023-05-22T14:41:11.040Z,10.70
2023-05-22T14:44:16.507Z,9.25
2023-05-22T14:47:21.980Z,8.73
2023-05-22T14:50:27.213Z,8.35
2023-05-22T14:53:35.285Z,9.15
2023-05-22T14:56:40.653Z,9.73
2023-05-22T14:59:46.151Z,13.90
2023-05-22T15:02:51.387Z,9.00
2023-05-22T15:05:57.101Z,13.77
2023-05-22T15:09:05.072Z,11.15
2023-05-22T15:12:10.745Z,8.80
2023-05-22T15:15:16.253Z,8.05
2023-05-22T15:18:22.152Z,9.10
2023-05-22T15:21:27.787Z,9.50
2023-05-22T15:24:35.948Z,9.88
2023-05-22T15:27:42.042Z,11.02
2023-05-22T15:30:47.548Z,9.50
2023-05-22T15:33:53.532Z,10.07
2023-05-22T15:36:59.069Z,7.47
2023-05-22T15:40:08.532Z,7.78
2023-05-22T15:43:13.979Z,8.00
2023-05-22T15:46:19.513Z,7.82
2023-05-22T15:49:24.764Z,6.47
2023-05-22T15:52:30.373Z,4.38
2023-05-22T15:55:38.436Z,3.80
2023-05-22T15:58:44.500Z,3.92
2023-05-22T16:01:49.916Z,3.30
2023-05-22T16:04:55.340Z,3.60
2023-05-22T16:08:00.752Z,3.20
2023-05-22T16:11:08.922Z,3.65
2023-05-22T16:14:14.513Z,3.08
2023-05-22T16:17:20.157Z,3.22
2023-05-22T16:20:26.086Z,3.47
2023-05-22T16:23:31.727Z,3.08
2023-05-22T16:26:39.847Z,3.88
2023-05-22T16:29:45.508Z,3.30
2023-05-22T16:32:51.415Z,3.22
2023-05-22T16:35:56.812Z,2.90
2023-05-22T16:39:02.528Z,3.38
2023-05-22T16:42:10.872Z,3.67
2023-05-22T16:45:16.175Z,3.22
2023-05-22T16:48:21.681Z,3.58
2023-05-22T16:51:27.081Z,4.35
2023-05-22T16:54:32.399Z,4.55
2023-05-22T16:57:40.477Z,5.10
2023-05-22T17:00:46.185Z,4.60
2023-05-22T17:03:52.055Z,5.15
2023-05-22T17:06:58.641Z,4.88
2023-05-22T17:10:04.260Z,5.03
2023-05-22T17:13:21.180Z,5.57
2023-05-22T17:16:26.814Z,5.45
2023-05-22T17:19:32.544Z,5.25
2023-05-22T17:22:38.151Z,6.20
2023-05-22T17:25:46.992Z,5.55
2023-05-22T17:28:55.170Z,5.82
2023-05-22T17:32:00.730Z,5.05
2023-05-22T17:35:07.109Z,7.10
2023-05-22T17:38:12.953Z,5.88
2023-05-22T17:41:18.641Z,5.20
2023-05-22T17:44:27.019Z,4.85
2023-05-22T17:47:32.360Z,5.65
2023-05-22T17:50:38.168Z,5.47
2023-05-22T17:53:44.006Z,7.22
2023-05-22T17:56:49.513Z,6.25
2023-05-22T17:59:57.659Z,6.10
2023-05-22T18:03:03.268Z,6.70
2023-05-22T18:06:09.505Z,6.40
2023-05-22T18:09:15.096Z,6.13
2023-05-22T18:18:36.916Z,6.40
2023-05-22T18:21:42.381Z,7.40
2023-05-22T18:24:47.865Z,15.85
2023-05-22T18:27:53.424Z,7.68
2023-05-22T18:30:59.307Z,7.35
2023-05-22T18:34:07.645Z,7.90
2023-05-22T18:37:14.320Z,8.10
2023-05-22T18:40:20.409Z,8.85
2023-05-22T18:43:28.491Z,8.63
2023-05-22T18:46:33.942Z,8.77
2023-05-22T18:49:42.288Z,9.57
2023-05-22T18:52:47.851Z,8.55
2023-05-22T18:55:54.247Z,8.55
2023-05-22T18:58:59.533Z,8.95
2023-05-22T19:02:04.793Z,9.27
2023-05-22T19:05:13.144Z,9.25
2023-05-22T19:08:18.640Z,9.18
2023-05-22T19:11:24.069Z,9.55
2023-05-22T19:14:29.720Z,9.15
2023-05-22T19:17:35.023Z,8.77
2023-05-22T19:20:43.382Z,9.52
2023-05-22T19:23:49.523Z,8.20
2023-05-22T19:26:55.248Z,8.73
2023-05-22T19:30:00.629Z,8.73
2023-05-22T19:33:08.611Z,9.68
2023-05-22T19:39:22.588Z,12.18
2023-05-22T19:42:27.719Z,10.02
2023-05-22T19:45:33.234Z,8.75
2023-05-22T19:48:38.788Z,8.32
2023-05-22T19:51:46.279Z,8.95
2023-05-22T19:54:54.442Z,7.63
2023-05-22T19:58:00.200Z,8.13
2023-05-22T20:01:05.534Z,8.65
2023-05-22T20:04:10.971Z,8.70
2023-05-22T20:07:17.174Z,8.52
2023-05-22T20:10:25.255Z,8.73
2023-05-22T20:13:30.878Z,9.32
2023-05-22T20:16:36.577Z,8.88
2023-05-22T20:19:45.289Z,8.43
2023-05-22T20:22:52.046Z,8.32
2023-05-22T20:26:00.229Z,8.55
2023-05-22T20:29:05.440Z,8.65
2023-05-22T20:32:12.006Z,8.32
2023-05-22T20:35:19.176Z,7.47
2023-05-22T20:38:26.234Z,8.35
2023-05-22T20:41:34.554Z,8.13
2023-05-22T20:44:39.810Z,8.93
2023-05-22T20:47:45.733Z,8.73
2023-05-22T20:50:51.981Z,8.18
2023-05-22T20:53:57.677Z,7.80
2023-05-22T20:57:06.055Z,8.07
2023-05-22T21:00:14.466Z,9.48
2023-05-22T21:03:26.094Z,7.35
2023-05-22T21:06:32.177Z,8.75
2023-05-22T21:09:37.948Z,7.47
2023-05-22T21:12:46.477Z,7.85
2023-05-22T21:15:51.824Z,9.10
2023-05-22T21:18:57.199Z,8.98
2023-05-22T21:22:03.136Z,7.72
2023-05-22T21:25:10.335Z,7.50
2023-05-22T21:28:18.710Z,8.32
2023-05-22T21:31:24.099Z,9.48
2023-05-22T21:34:30.016Z,7.95
2023-05-22T21:37:35.703Z,8.77
2023-05-22T21:40:43.173Z,8.23
2023-05-22T21:43:53.057Z,6.82
2023-05-22T21:46:59.028Z,7.78
2023-05-22T21:50:04.625Z,7.70
2023-05-22T21:53:10.608Z,8.00
2023-05-22T21:56:16.062Z,7.68
2023-05-22T21:59:23.913Z,7.15
2023-05-22T22:02:29.765Z,7.60
2023-05-22T22:05:34.992Z,7.65
2023-05-22T22:08:40.494Z,7.78
2023-05-22T22:11:46.102Z,9.50
2023-05-22T22:14:53.880Z,7.20
2023-05-22T22:18:02.638Z,8.65
2023-05-22T22:21:08.001Z,7.75
2023-05-22T22:24:15.630Z,8.23
2023-05-22T22:27:21.221Z,8.13
2023-05-22T22:30:29.536Z,7.75
2023-05-22T22:33:35.043Z,7.72
2023-05-22T22:36:40.419Z,8.07
2023-05-22T22:39:46.322Z,8.40
2023-05-22T22:42:52.038Z,8.38
2023-05-22T22:46:00.253Z,8.05
2023-05-22T22:49:05.906Z,8.73
2023-05-22T22:52:11.329Z,8.73
2023-05-22T22:55:16.868Z,9.10
2023-05-22T22:58:22.527Z,9.73
2023-05-22T23:01:30.818Z,8.32
2023-05-22T23:04:36.761Z,8.73
2023-05-22T23:07:42.491Z,8.55
2023-05-22T23:10:47.876Z,7.97
2023-05-22T23:13:53.616Z,8.70
2023-05-22T23:17:01.682Z,9.38
2023-05-22T23:20:09.337Z,9.13
2023-05-22T23:23:14.774Z,8.93
2023-05-22T23:26:19.931Z,8.43
2023-05-22T23:29:25.318Z,8.00
2023-05-22T23:32:33.476Z,8.52
2023-05-22T23:35:39.552Z,8.52
2023-05-22T23:38:46.854Z,8.77
2023-05-22T23:41:54.587Z,9.02
2023-05-22T23:44:59.988Z,8.55
2023-05-22T23:48:08.291Z,7.97
2023-05-22T23:51:15.745Z,8.82
2023-05-22T23:54:21.107Z,8.85
2023-05-22T23:57:26.699Z,9.68
